Terminal Aerodrome Forecast
Issued by NWS Tampa Bay Area, FL

Home | Current Version | Previous Version | Text Only | Print | Product List | Glossary On
Versions: 1 2 3 4 5 6 7 8 9 10 11 12 13 14 15 16 17 18 19 20 21 22 23 24 25 26 27 28 29 30
000
FTUS42 KTBW 180800 AAB
TAFTPA
TAF AMD
KTPA 180855Z 1809/1906 09009KT P6SM FEW007 SCT015 BKN050
      TEMPO 1809/1812 BKN015
     FM181400 13012KT P6SM VCSH SCT015 BKN025
     FM181700 16013G21KT P6SM VCTS SCT020CB BKN035
     FM182000 19015G24KT P6SM VCTS SCT025CB BKN050
     FM190100 21015KT P6SM SCT010 BKN035=

USA.gov is the U.S. government's official web portal to all federal, state and local government web resources and services.